Time;durP1;ratioP1;P1;durP2;ratioP2;P2;SDS_P1;SDS_P2;PMS_P1;PMS_P2;Temp;Humidity;BMP_temperature;BMP_pressure;BME280_temperature;BME280_humidity;BME280_pressure;Samples;Min_cycle;Max_cycle;Signal;HPM_P1;HPM_P2
2022/11/23 00:01:57;;;;;;;;;;;8.90;99.90;;;;;;8428202;28;19936;-71
2022/11/23 00:06:00;;;;;;;;;;;8.90;99.90;;;;;;8411084;28;19931;-71
2022/11/23 00:10:02;;;;;;;;;;;8.90;99.90;;;;;;8403228;28;19978;-71
2022/11/23 00:14:04;;;;;;;;;;;8.90;99.90;;;;;;8392178;28;19931;-71
2022/11/23 00:18:05;;;;;;;;;;;8.90;99.90;;;;;;8408460;28;19931;-72
2022/11/23 00:22:07;;;;;;;;;;;8.90;99.90;;;;;;8419959;28;19924;-71
2022/11/23 00:26:09;;;;;;;;;;;8.90;99.90;;;;;;8416378;28;20375;-71
2022/11/23 00:30:11;;;;;;;;;;;8.90;99.90;;;;;;8424030;28;20225;-71
2022/11/23 00:34:12;;;;;;;;;;;8.90;99.90;;;;;;8414791;28;19927;-72
2022/11/23 00:38:14;;;;;;;;;;;8.90;99.90;;;;;;8422049;28;19967;-71
2022/11/23 00:42:15;;;;;;;;;;;8.90;99.90;;;;;;8422774;28;19931;-71
2022/11/23 00:46:18;;;;;;;;;;;8.90;99.90;;;;;;8415444;28;19967;-71
2022/11/23 00:50:20;;;;;;;;;;;8.90;99.90;;;;;;8421620;28;20307;-71
2022/11/23 00:54:21;;;;;;;;;;;8.90;99.90;;;;;;8423561;28;19935;-71
2022/11/23 00:58:23;;;;;;;;;;;8.90;99.90;;;;;;8418663;28;19981;-71
2022/11/23 01:02:25;;;;;;;;;;;8.90;99.90;;;;;;8393624;28;19978;-72
2022/11/23 01:06:28;;;;;;;;;;;8.90;99.90;;;;;;8411526;28;19924;-72
2022/11/23 01:10:30;;;;;;;;;;;9.00;99.90;;;;;;8408319;28;19956;-71
2022/11/23 01:14:32;;;;;;;;;;;9.00;99.90;;;;;;8404743;28;19931;-72
2022/11/23 01:18:33;;;;;;;;;;;9.00;99.90;;;;;;8404893;28;19936;-71
2022/11/23 01:22:35;;;;;;;;;;;9.00;99.90;;;;;;8412250;28;20602;-72
2022/11/23 01:26:37;;;;;;;;;;;9.00;99.90;;;;;;8410565;28;19942;-71
2022/11/23 01:30:38;;;;;;;;;;;9.00;99.90;;;;;;8389169;28;19932;-71
2022/11/23 01:34:40;;;;;;;;;;;9.00;99.90;;;;;;8404842;28;19928;-71
2022/11/23 01:38:42;;;;;;;;;;;9.00;99.90;;;;;;8403909;28;20474;-71
2022/11/23 01:42:48;;;;;;;;;;;9.00;99.90;;;;;;8418814;28;19976;-71
2022/11/23 01:46:50;;;;;;;;;;;8.90;99.90;;;;;;8412185;28;19936;-72
2022/11/23 01:50:52;;;;;;;;;;;8.90;99.90;;;;;;8394689;28;19974;-71
2022/11/23 01:54:55;;;;;;;;;;;8.90;99.90;;;;;;8390368;28;19924;-71
2022/11/23 01:58:59;;;;;;;;;;;8.80;99.90;;;;;;8414492;28;19932;-71
2022/11/23 02:03:03;;;;;;;;;;;8.80;99.90;;;;;;8415524;28;19924;-71
2022/11/23 02:07:05;;;;;;;;;;;8.80;99.90;;;;;;8421046;28;19932;-71
2022/11/23 02:11:07;;;;;;;;;;;8.80;99.90;;;;;;8392873;28;19974;-71
2022/11/23 02:15:08;;;;;;;;;;;8.70;99.90;;;;;;8397025;28;19924;-71
2022/11/23 02:19:18;;;;;;;;;;;8.70;99.90;;;;;;8397312;28;19946;-71
2022/11/23 02:23:29;;;;;;;;;;;8.70;99.90;;;;;;8396502;28;19978;-71
2022/11/23 02:27:30;;;;;;;;;;;8.70;99.90;;;;;;8411665;28;19931;-72
2022/11/23 02:31:32;;;;;;;;;;;8.70;99.90;;;;;;8398206;28;19927;-72
2022/11/23 02:35:34;;;;;;;;;;;8.70;99.90;;;;;;8409625;28;19931;-72
2022/11/23 02:39:37;;;;;;;;;;;8.70;99.90;;;;;;8411428;28;20019;-71
2022/11/23 02:43:38;;;;;;;;;;;8.70;99.90;;;;;;8393482;28;19924;-72
2022/11/23 02:47:40;;;;;;;;;;;8.70;99.90;;;;;;8409220;28;19971;-71
2022/11/23 02:51:41;;;;;;;;;;;8.70;99.90;;;;;;8426407;28;19982;-71
2022/11/23 02:55:43;;;;;;;;;;;8.70;99.90;;;;;;8391604;28;20420;-71
2022/11/23 02:59:45;;;;;;;;;;;8.70;99.90;;;;;;8420029;28;20402;-71
2022/11/23 03:03:46;;;;;;;;;;;8.70;99.90;;;;;;8418102;28;19956;-71
2022/11/23 03:07:48;;;;;;;;;;;8.70;99.90;;;;;;8414322;28;19924;-72
2022/11/23 03:11:50;;;;;;;;;;;8.70;99.90;;;;;;8426078;28;20352;-71
2022/11/23 03:15:54;;;;;;;;;;;8.70;99.90;;;;;;8427455;28;19924;-72
2022/11/23 03:19:57;;;;;;;;;;;8.70;99.90;;;;;;8414466;28;19947;-71
2022/11/23 03:23:58;;;;;;;;;;;8.70;99.90;;;;;;8417104;28;20007;-71
2022/11/23 03:28:00;;;;;;;;;;;8.70;99.90;;;;;;8426906;28;19927;-71
2022/11/23 03:32:02;;;;;;;;;;;8.70;99.90;;;;;;8406220;28;20343;-71
2022/11/23 03:36:03;;;;;;;;;;;8.70;99.90;;;;;;8424163;28;19955;-71
2022/11/23 03:40:05;;;;;;;;;;;8.70;99.90;;;;;;8405381;28;19924;-71
2022/11/23 03:44:07;;;;;;;;;;;8.70;99.90;;;;;;8411363;28;19931;-71
2022/11/23 03:48:09;;;;;;;;;;;8.80;99.90;;;;;;8407042;28;19928;-71
2022/11/23 03:52:10;;;;;;;;;;;8.80;99.90;;;;;;8421493;28;19928;-72
2022/11/23 03:56:13;;;;;;;;;;;8.80;99.90;;;;;;8415819;28;19981;-71
2022/11/23 04:00:15;;;;;;;;;;;8.80;99.90;;;;;;8395451;28;19932;-72
2022/11/23 04:04:17;;;;;;;;;;;8.90;99.90;;;;;;8419672;28;19924;-71
2022/11/23 04:08:19;;;;;;;;;;;8.90;99.90;;;;;;8407094;28;20482;-72
2022/11/23 04:12:21;;;;;;;;;;;8.90;99.90;;;;;;8418538;28;19979;-71
2022/11/23 04:16:22;;;;;;;;;;;8.90;99.90;;;;;;8420456;28;19935;-72
2022/11/23 04:20:24;;;;;;;;;;;8.90;99.90;;;;;;8415949;28;20023;-71
2022/11/23 04:24:26;;;;;;;;;;;8.80;99.90;;;;;;8409717;28;19950;-71
2022/11/23 04:28:27;;;;;;;;;;;8.80;99.90;;;;;;8416084;28;19970;-71
2022/11/23 04:32:29;;;;;;;;;;;8.70;99.90;;;;;;8398720;28;19930;-71
2022/11/23 04:36:31;;;;;;;;;;;8.70;99.90;;;;;;8411138;28;19931;-71
2022/11/23 04:40:33;;;;;;;;;;;8.60;99.90;;;;;;8405379;28;20006;-71
2022/11/23 04:44:35;;;;;;;;;;;8.60;99.90;;;;;;8419806;28;19944;-71
2022/11/23 04:48:36;;;;;;;;;;;8.50;99.90;;;;;;8413756;28;20015;-71
2022/11/23 04:52:38;;;;;;;;;;;8.50;99.90;;;;;;8413721;28;19930;-71
2022/11/23 04:56:39;;;;;;;;;;;8.50;99.90;;;;;;8407805;28;19924;-71
2022/11/23 05:00:41;;;;;;;;;;;8.50;99.90;;;;;;8414569;28;19930;-71
2022/11/23 05:04:55;;;;;;;;;;;8.50;99.90;;;;;;8414852;28;20387;-71
2022/11/23 05:08:56;;;;;;;;;;;8.50;99.90;;;;;;8401245;28;19925;-71
2022/11/23 05:12:58;;;;;;;;;;;8.60;99.90;;;;;;8418884;28;20019;-71
2022/11/23 05:17:00;;;;;;;;;;;8.60;99.90;;;;;;8402182;28;19970;-71
2022/11/23 05:21:01;;;;;;;;;;;8.60;99.90;;;;;;8425455;28;19924;-71
2022/11/23 05:25:03;;;;;;;;;;;8.70;99.90;;;;;;8406432;28;20282;-71
2022/11/23 05:29:05;;;;;;;;;;;8.70;99.90;;;;;;8404274;28;20406;-71
2022/11/23 05:33:07;;;;;;;;;;;8.70;99.90;;;;;;8387795;28;19975;-71
2022/11/23 05:37:08;;;;;;;;;;;8.80;99.90;;;;;;8413257;28;19943;-71
2022/11/23 05:41:10;;;;;;;;;;;8.80;99.90;;;;;;8390162;28;19924;-71
2022/11/23 05:45:12;;;;;;;;;;;8.80;99.90;;;;;;8413065;28;19924;-71
2022/11/23 05:49:13;;;;;;;;;;;8.80;99.90;;;;;;8393362;28;19935;-71
2022/11/23 05:53:15;;;;;;;;;;;8.80;99.90;;;;;;8411890;28;19924;-71
2022/11/23 05:57:16;;;;;;;;;;;8.80;99.90;;;;;;8406978;28;19976;-71
2022/11/23 06:01:18;;;;;;;;;;;8.70;99.90;;;;;;8412999;28;19993;-71
2022/11/23 06:05:20;;;;;;;;;;;8.80;99.90;;;;;;8416998;28;19943;-71
2022/11/23 06:09:21;;;;;;;;;;;8.80;99.90;;;;;;8432731;28;19932;-71
2022/11/23 06:13:23;;;;;;;;;;;8.80;99.90;;;;;;8386314;28;20367;-71
2022/11/23 06:17:25;;;;;;;;;;;8.80;99.90;;;;;;8396381;28;19924;-71
2022/11/23 06:21:26;;;;;;;;;;;8.70;99.90;;;;;;8412520;28;19967;-71
2022/11/23 06:25:28;;;;;;;;;;;8.70;99.90;;;;;;8420060;28;20371;-71
2022/11/23 06:29:29;;;;;;;;;;;8.70;99.90;;;;;;8421550;28;19971;-71
2022/11/23 06:33:32;;;;;;;;;;;8.60;99.90;;;;;;8413187;28;20052;-71
2022/11/23 06:37:34;;;;;;;;;;;8.60;99.90;;;;;;8422287;28;19978;-71
2022/11/23 06:41:35;;;;;;;;;;;8.60;99.90;;;;;;8421918;28;19950;-71
2022/11/23 06:45:37;;;;;;;;;;;8.50;99.90;;;;;;8408460;28;19925;-71
2022/11/23 06:49:39;;;;;;;;;;;8.40;99.90;;;;;;8396455;28;20271;-71
2022/11/23 06:53:41;;;;;;;;;;;8.30;99.90;;;;;;8414106;28;19932;-72
2022/11/23 06:57:42;;;;;;;;;;;8.30;99.90;;;;;;8410447;28;19931;-72
2022/11/23 07:01:44;;;;;;;;;;;8.20;99.90;;;;;;8420159;28;20272;-71
2022/11/23 07:05:46;;;;;;;;;;;8.20;99.90;;;;;;8411894;28;19924;-72
2022/11/23 07:09:47;;;;;;;;;;;8.10;99.90;;;;;;8419189;28;20306;-72
2022/11/23 07:13:49;;;;;;;;;;;8.10;99.90;;;;;;8401643;28;19928;-72
2022/11/23 07:17:51;;;;;;;;;;;8.00;99.90;;;;;;8422828;28;20669;-71
2022/11/23 07:21:53;;;;;;;;;;;8.00;99.90;;;;;;8414955;28;20784;-72
2022/11/23 07:25:54;;;;;;;;;;;8.00;99.90;;;;;;8416644;28;19935;-72
2022/11/23 07:29:56;;;;;;;;;;;8.00;99.90;;;;;;8420861;28;19924;-71
2022/11/23 07:33:57;;;;;;;;;;;8.00;99.90;;;;;;8393865;28;19963;-71
2022/11/23 07:37:59;;;;;;;;;;;8.10;99.90;;;;;;8420268;28;19924;-71
2022/11/23 07:42:01;;;;;;;;;;;8.10;99.90;;;;;;8428068;28;19924;-72
2022/11/23 07:46:23;;;;;;;;;;;8.20;99.90;;;;;;8421427;28;19985;-72
2022/11/23 07:50:24;;;;;;;;;;;8.30;99.90;;;;;;8419056;28;20015;-72
2022/11/23 07:54:26;;;;;;;;;;;8.30;99.90;;;;;;8388220;28;19924;-71
2022/11/23 07:58:27;;;;;;;;;;;8.40;99.90;;;;;;8416676;28;19936;-71
2022/11/23 08:02:29;;;;;;;;;;;8.40;99.90;;;;;;8418681;28;20372;-71
2022/11/23 08:06:31;;;;;;;;;;;8.50;99.90;;;;;;8430474;28;20351;-71
2022/11/23 08:10:32;;;;;;;;;;;8.50;99.90;;;;;;8424281;28;19931;-71
2022/11/23 08:14:36;;;;;;;;;;;8.50;99.90;;;;;;8407484;28;19963;-71
2022/11/23 08:18:37;;;;;;;;;;;8.60;99.90;;;;;;8430725;28;20382;-71
2022/11/23 08:22:39;;;;;;;;;;;8.60;99.90;;;;;;8398468;28;19930;-71
2022/11/23 08:26:41;;;;;;;;;;;8.60;99.90;;;;;;8417187;28;20383;-71
2022/11/23 08:30:43;;;;;;;;;;;8.60;99.90;;;;;;8400751;28;19935;-71
2022/11/23 08:34:44;;;;;;;;;;;8.70;99.90;;;;;;8420203;28;20026;-71
2022/11/23 08:38:46;;;;;;;;;;;8.80;99.90;;;;;;8424841;28;20274;-71
2022/11/23 08:42:47;;;;;;;;;;;8.80;99.90;;;;;;8410055;28;19956;-71
2022/11/23 08:46:49;;;;;;;;;;;8.80;99.90;;;;;;8403541;28;19924;-71
2022/11/23 08:50:51;;;;;;;;;;;8.90;99.90;;;;;;8415386;28;20342;-71
2022/11/23 08:54:52;;;;;;;;;;;8.90;99.90;;;;;;8418062;28;20378;-71
2022/11/23 08:58:54;;;;;;;;;;;8.90;99.90;;;;;;8417301;28;19982;-71
2022/11/23 09:02:57;;;;;;;;;;;8.90;99.90;;;;;;8421946;28;20410;-71
2022/11/23 09:07:01;;;;;;;;;;;8.90;99.90;;;;;;8422016;28;19924;-71
2022/11/23 09:11:04;;;;;;;;;;;9.00;99.90;;;;;;8402257;28;19978;-71
2022/11/23 09:15:06;;;;;;;;;;;9.10;99.90;;;;;;8399613;28;20287;-71
2022/11/23 09:19:10;;;;;;;;;;;9.20;99.90;;;;;;8415705;28;19931;-71
2022/11/23 09:23:11;;;;;;;;;;;9.20;99.90;;;;;;8408877;28;19928;-71
2022/11/23 09:27:15;;;;;;;;;;;9.30;99.90;;;;;;8406873;28;19954;-71
2022/11/23 09:31:16;;;;;;;;;;;9.40;99.90;;;;;;8401122;28;19967;-71
2022/11/23 09:35:18;;;;;;;;;;;9.40;99.90;;;;;;8421449;28;19927;-72
2022/11/23 09:39:20;;;;;;;;;;;9.50;99.90;;;;;;8422882;28;20023;-72
2022/11/23 09:43:31;;;;;;;;;;;9.50;99.90;;;;;;8418824;28;19928;-71
2022/11/23 09:47:45;;;;;;;;;;;9.60;99.90;;;;;;8395176;28;19924;-71
2022/11/23 09:51:47;;;;;;;;;;;9.70;99.90;;;;;;8421437;28;19924;-71
2022/11/23 09:55:54;;;;;;;;;;;9.80;99.90;;;;;;8395475;28;20405;-72
2022/11/23 10:00:04;;;;;;;;;;;9.90;99.90;;;;;;8390521;28;19935;-71
2022/11/23 10:04:08;;;;;;;;;;;9.90;99.90;;;;;;8385968;28;20023;-71
2022/11/23 10:08:13;;;;;;;;;;;10.00;99.90;;;;;;8421208;28;20031;-71
2022/11/23 10:12:14;;;;;;;;;;;10.00;99.90;;;;;;8391988;28;19971;-72
2022/11/23 10:16:19;;;;;;;;;;;10.10;99.90;;;;;;8421325;28;20355;-71
2022/11/23 10:20:38;;;;;;;;;;;10.30;99.90;;;;;;8416489;28;19924;-72
2022/11/23 10:24:46;;;;;;;;;;;10.40;99.90;;;;;;8396858;28;19931;-72
2022/11/23 10:28:48;;;;;;;;;;;10.40;99.90;;;;;;8398789;28;20292;-71
2022/11/23 10:32:54;;;;;;;;;;;10.60;99.90;;;;;;8423553;28;19930;-71
2022/11/23 10:36:56;;;;;;;;;;;10.90;99.90;;;;;;8402335;28;19932;-72
2022/11/23 10:41:03;;;;;;;;;;;11.30;99.90;;;;;;8414212;28;20023;-71
2022/11/23 10:45:05;;;;;;;;;;;11.80;99.90;;;;;;8418722;28;20011;-72
2022/11/23 10:49:07;;;;;;;;;;;12.60;99.90;;;;;;8402344;28;19974;-72
2022/11/23 10:53:08;;;;;;;;;;;13.10;99.90;;;;;;8394466;28;19967;-72
2022/11/23 10:57:29;;;;;;;;;;;13.20;99.90;;;;;;8372358;28;20291;-72
2022/11/23 11:01:31;;;;;;;;;;;13.30;99.90;;;;;;8400985;28;19924;-71
2022/11/23 11:20:43;;;;;;;;;;;11.50;99.90;;;;;;8402386;28;19924;-71
2022/11/23 11:24:45;;;;;;;;;;;11.20;99.90;;;;;;8392709;28;19935;-72
2022/11/23 11:28:51;;;;;;;;;;;10.80;99.90;;;;;;8378469;28;19928;-71
2022/11/23 11:32:56;;;;;;;;;;;10.70;99.90;;;;;;8394079;28;19933;-71
2022/11/23 11:36:57;;;;;;;;;;;11.00;99.90;;;;;;8395407;28;20031;-71
2022/11/23 11:41:01;;;;;;;;;;;11.40;99.90;;;;;;8382072;28;20294;-71
2022/11/23 11:45:04;;;;;;;;;;;11.40;99.90;;;;;;8384391;28;19940;-72
2022/11/23 11:49:13;;;;;;;;;;;11.30;99.90;;;;;;8395905;28;20375;-72
2022/11/23 11:53:21;;;;;;;;;;;11.60;99.90;;;;;;8409808;28;19924;-72
2022/11/23 11:57:50;;;;;;;;;;;12.20;99.90;;;;;;8385095;28;19929;-71
2022/11/23 12:01:59;;;;;;;;;;;12.70;99.90;;;;;;8350334;28;19982;-71
2022/11/23 12:06:05;;;;;;;;;;;13.60;99.90;;;;;;8387531;28;20295;-71
2022/11/23 12:20:16;;;;;;;;;;;15.50;99.90;;;;;;8385970;28;19928;-72
2022/11/23 12:24:18;;;;;;;;;;;15.60;99.90;;;;;;8397018;28;19938;-71
2022/11/23 12:28:20;;;;;;;;;;;15.60;99.90;;;;;;8400827;28;19928;-71
2022/11/23 12:32:27;;;;;;;;;;;15.30;99.90;;;;;;8397090;28;19931;-71
2022/11/23 12:36:44;;;;;;;;;;;15.00;99.90;;;;;;8400425;28;19928;-72
2022/11/23 12:41:00;;;;;;;;;;;14.70;99.90;;;;;;8392649;28;19925;-72
2022/11/23 12:45:13;;;;;;;;;;;14.40;99.90;;;;;;8388740;28;19994;-71
2022/11/23 12:49:21;;;;;;;;;;;14.40;99.90;;;;;;8394080;28;19924;-72
2022/11/23 12:53:31;;;;;;;;;;;14.20;99.90;;;;;;8391755;28;20389;-71
2022/11/23 12:57:37;;;;;;;;;;;14.30;99.90;;;;;;8390241;28;19924;-72
2022/11/23 13:01:59;;;;;;;;;;;13.90;99.90;;;;;;8390776;28;20023;-72
2022/11/23 13:06:20;;;;;;;;;;;13.50;99.90;;;;;;8390828;28;19925;-71
2022/11/23 13:10:24;;;;;;;;;;;13.10;99.90;;;;;;8388806;28;19925;-72
2022/11/23 13:14:48;;;;;;;;;;;12.80;99.90;;;;;;8392712;28;19935;-71
2022/11/23 13:23:54;;;;;;;;;;;12.30;99.90;;;;;;8389507;28;19958;-71
2022/11/23 13:27:57;;;;;;;;;;;12.10;99.90;;;;;;8394884;28;19946;-71
2022/11/23 13:32:18;;;;;;;;;;;12.00;99.90;;;;;;8390594;28;20387;-71
2022/11/23 13:36:29;;;;;;;;;;;11.90;99.90;;;;;;8367586;28;20091;-71
2022/11/23 13:40:51;;;;;;;;;;;11.80;99.90;;;;;;8392083;28;19932;-71
2022/11/23 13:45:12;;;;;;;;;;;11.70;99.90;;;;;;8395680;28;20364;-71
2022/11/23 13:49:32;;;;;;;;;;;11.70;99.90;;;;;;8388366;28;19924;-71
2022/11/23 13:53:33;;;;;;;;;;;11.40;99.90;;;;;;8387458;28;19932;-71
2022/11/23 13:57:36;;;;;;;;;;;11.10;99.90;;;;;;8386453;28;19943;-72
2022/11/23 14:01:57;;;;;;;;;;;10.90;99.90;;;;;;8390397;28;19950;-71
2022/11/23 14:06:00;;;;;;;;;;;10.60;99.90;;;;;;8412300;28;19954;-72
2022/11/23 14:10:03;;;;;;;;;;;10.40;99.90;;;;;;8392383;28;19928;-71
2022/11/23 14:14:15;;;;;;;;;;;10.40;99.90;;;;;;8388083;28;19973;-71
2022/11/23 14:18:37;;;;;;;;;;;10.30;99.90;;;;;;8392548;28;19928;-71
2022/11/23 14:23:05;;;;;;;;;;;10.20;99.90;;;;;;8375661;28;19928;-71
2022/11/23 14:27:26;;;;;;;;;;;10.00;99.90;;;;;;8391827;28;19925;-71
2022/11/23 14:32:10;;;;;;;;;;;10.00;99.90;;;;;;8390293;28;20534;-72
2022/11/23 14:36:18;;;;;;;;;;;9.90;99.90;;;;;;8373036;28;19928;-71
2022/11/23 14:40:39;;;;;;;;;;;10.00;99.90;;;;;;8389865;28;20024;-71
2022/11/23 14:44:41;;;;;;;;;;;9.90;99.90;;;;;;8393733;28;20506;-71
2022/11/23 14:48:43;;;;;;;;;;;9.90;99.90;;;;;;8389736;28;19982;-71
2022/11/23 14:52:45;;;;;;;;;;;9.80;99.90;;;;;;8370539;28;19936;-72
2022/11/23 15:01:51;;;;;;;;;;;9.80;99.90;;;;;;8394558;28;19935;-72
2022/11/23 15:05:56;;;;;;;;;;;9.70;99.90;;;;;;8375300;28;19963;-71
2022/11/23 15:10:05;;;;;;;;;;;9.70;99.90;;;;;;8385457;28;20589;-72
2022/11/23 15:14:17;;;;;;;;;;;9.70;99.90;;;;;;8403050;28;19982;-71
2022/11/23 15:18:32;;;;;;;;;;;9.70;99.90;;;;;;8382481;28;20447;-71
2022/11/23 15:22:34;;;;;;;;;;;9.70;99.90;;;;;;8370819;28;19928;-71
2022/11/23 15:26:36;;;;;;;;;;;9.70;99.90;;;;;;8387756;28;19975;-72
2022/11/23 15:30:53;;;;;;;;;;;9.60;99.90;;;;;;8372466;28;20466;-71
2022/11/23 15:35:00;;;;;;;;;;;9.60;99.90;;;;;;8394871;28;20006;-71
2022/11/23 15:39:02;;;;;;;;;;;9.60;99.90;;;;;;8367640;28;19928;-71
2022/11/23 15:43:04;;;;;;;;;;;9.50;99.90;;;;;;8389413;28;19931;-72
2022/11/23 15:47:06;;;;;;;;;;;9.50;99.90;;;;;;8391395;28;20763;-71
2022/11/23 15:51:21;;;;;;;;;;;9.50;99.90;;;;;;8384314;28;20371;-71
2022/11/23 15:55:24;;;;;;;;;;;9.50;99.90;;;;;;8384945;28;20692;-71
2022/11/23 15:59:28;;;;;;;;;;;9.50;99.90;;;;;;8392460;28;19939;-71
2022/11/23 16:03:32;;;;;;;;;;;9.50;99.90;;;;;;8375651;28;20354;-71
2022/11/23 16:07:47;;;;;;;;;;;9.40;99.90;;;;;;8389818;28;19928;-71
2022/11/23 16:11:49;;;;;;;;;;;9.40;99.90;;;;;;8386633;28;19942;-71
2022/11/23 16:15:58;;;;;;;;;;;9.40;99.90;;;;;;8390704;28;19990;-71
2022/11/23 16:20:02;;;;;;;;;;;9.40;99.90;;;;;;8377640;28;19947;-71
2022/11/23 16:24:04;;;;;;;;;;;9.40;99.90;;;;;;8375740;28;19924;-71
2022/11/23 16:28:14;;;;;;;;;;;9.40;99.90;;;;;;8386106;28;19932;-71
2022/11/23 16:32:24;;;;;;;;;;;9.30;99.90;;;;;;8379883;28;20018;-71
2022/11/23 16:36:26;;;;;;;;;;;9.30;99.90;;;;;;8383361;28;19931;-72
2022/11/23 16:40:28;;;;;;;;;;;9.30;99.90;;;;;;8392186;28;19939;-71
2022/11/23 16:44:29;;;;;;;;;;;9.30;99.90;;;;;;8397090;28;20744;-71
2022/11/23 16:48:37;;;;;;;;;;;9.30;99.90;;;;;;8386857;28;20049;-71
2022/11/23 16:52:43;;;;;;;;;;;9.30;99.90;;;;;;8367908;28;20011;-71
2022/11/23 16:56:45;;;;;;;;;;;9.30;99.90;;;;;;8369942;28;19959;-71
2022/11/23 17:00:48;;;;;;;;;;;9.30;99.90;;;;;;8398422;28;19933;-71
2022/11/23 17:04:49;;;;;;;;;;;9.30;99.90;;;;;;8387210;28;20311;-71
2022/11/23 17:08:52;;;;;;;;;;;9.40;99.90;;;;;;8376141;28;19932;-71
2022/11/23 17:13:01;;;;;;;;;;;9.40;99.90;;;;;;8393350;28;19932;-71
2022/11/23 17:17:02;;;;;;;;;;;9.40;99.90;;;;;;8389028;28;19967;-71
2022/11/23 17:21:04;;;;;;;;;;;9.40;99.90;;;;;;8392243;28;19939;-71
2022/11/23 17:25:06;;;;;;;;;;;9.40;99.90;;;;;;8384955;28;19925;-71
2022/11/23 17:29:17;;;;;;;;;;;9.40;99.90;;;;;;8378377;28;20291;-71
2022/11/23 17:33:19;;;;;;;;;;;9.40;99.90;;;;;;8379758;28;19944;-72
2022/11/23 17:37:21;;;;;;;;;;;9.40;99.90;;;;;;8397117;28;19971;-71
2022/11/23 17:41:23;;;;;;;;;;;9.40;99.90;;;;;;8388044;28;20280;-71
2022/11/23 17:45:25;;;;;;;;;;;9.30;99.90;;;;;;8388403;28;19925;-71
2022/11/23 17:49:27;;;;;;;;;;;9.30;99.90;;;;;;8402393;28;19930;-71
2022/11/23 17:53:28;;;;;;;;;;;9.20;99.90;;;;;;8396471;28;19928;-72
2022/11/23 17:57:30;;;;;;;;;;;9.20;99.90;;;;;;8401287;28;20824;-71
2022/11/23 18:01:33;;;;;;;;;;;9.20;99.90;;;;;;8372615;28;19928;-71
2022/11/23 18:05:34;;;;;;;;;;;9.20;99.90;;;;;;8405303;28;19971;-71
2022/11/23 18:09:36;;;;;;;;;;;9.20;99.90;;;;;;8379503;28;20027;-72
2022/11/23 18:13:38;;;;;;;;;;;9.10;99.90;;;;;;8385774;28;20030;-71
2022/11/23 18:17:40;;;;;;;;;;;9.10;99.90;;;;;;8377855;28;19931;-71
2022/11/23 18:21:44;;;;;;;;;;;9.00;99.90;;;;;;8388630;28;19935;-71
2022/11/23 18:25:46;;;;;;;;;;;9.00;99.90;;;;;;8369228;28;19924;-71
2022/11/23 18:29:47;;;;;;;;;;;8.90;99.90;;;;;;8387742;28;20375;-71
2022/11/23 18:33:49;;;;;;;;;;;8.90;99.90;;;;;;8369190;28;19967;-71
2022/11/23 18:37:51;;;;;;;;;;;8.80;99.90;;;;;;8374290;28;19924;-71
2022/11/23 18:41:54;;;;;;;;;;;8.80;99.90;;;;;;8377352;28;19932;-71
2022/11/23 18:45:55;;;;;;;;;;;8.80;99.90;;;;;;8388480;28;19931;-71
2022/11/23 18:49:57;;;;;;;;;;;8.70;99.90;;;;;;8384328;28;19934;-71
2022/11/23 18:54:04;;;;;;;;;;;8.70;99.90;;;;;;8390941;28;19961;-71
2022/11/23 18:58:05;;;;;;;;;;;8.70;99.90;;;;;;8398540;28;19928;-71
2022/11/23 19:02:08;;;;;;;;;;;8.70;99.90;;;;;;8392979;28;19924;-71
2022/11/23 19:06:12;;;;;;;;;;;8.60;99.90;;;;;;8372808;28;19939;-71
2022/11/23 19:10:14;;;;;;;;;;;8.60;99.90;;;;;;8391931;28;19932;-71
2022/11/23 19:14:16;;;;;;;;;;;8.50;99.90;;;;;;8395648;28;19925;-71
2022/11/23 19:18:17;;;;;;;;;;;8.50;99.90;;;;;;8390117;28;20022;-71
2022/11/23 19:22:19;;;;;;;;;;;8.40;99.90;;;;;;8381888;28;20897;-70
2022/11/23 19:31:28;;;;;;;;;;;8.40;99.90;;;;;;8401998;28;19923;-71
2022/11/23 19:35:30;;;;;;;;;;;8.30;99.90;;;;;;8394955;28;19938;-71
2022/11/23 19:39:32;;;;;;;;;;;8.30;99.90;;;;;;8397496;28;20043;-71
2022/11/23 19:43:33;;;;;;;;;;;8.30;99.90;;;;;;8372322;28;19924;-71
2022/11/23 19:47:35;;;;;;;;;;;8.30;99.90;;;;;;8375902;28;20007;-71
2022/11/23 19:51:37;;;;;;;;;;;8.30;99.90;;;;;;8397593;28;20083;-71
2022/11/23 19:55:38;;;;;;;;;;;8.30;99.90;;;;;;8395178;28;19925;-71
2022/11/23 19:59:40;;;;;;;;;;;8.30;99.90;;;;;;8392981;28;19942;-71
2022/11/23 20:03:46;;;;;;;;;;;8.30;99.90;;;;;;8375681;28;20278;-71
2022/11/23 20:07:48;;;;;;;;;;;8.30;99.90;;;;;;8398147;28;19971;-71
2022/11/23 20:11:50;;;;;;;;;;;8.30;99.90;;;;;;8393682;28;20510;-71
2022/11/23 20:15:52;;;;;;;;;;;8.30;99.90;;;;;;8393076;28;20014;-71
2022/11/23 20:19:54;;;;;;;;;;;8.30;99.90;;;;;;8377203;28;20389;-71
2022/11/23 20:23:57;;;;;;;;;;;8.30;99.90;;;;;;8391688;28;19925;-71
2022/11/23 20:28:04;;;;;;;;;;;8.20;99.90;;;;;;8386764;28;19924;-71
2022/11/23 20:32:06;;;;;;;;;;;8.20;99.90;;;;;;8400040;28;19935;-71
2022/11/23 20:36:08;;;;;;;;;;;8.20;99.90;;;;;;8392915;28;19928;-71
2022/11/23 20:40:10;;;;;;;;;;;8.20;99.90;;;;;;8388541;28;20346;-71
2022/11/23 20:44:13;;;;;;;;;;;8.20;99.90;;;;;;8393289;28;19928;-72
2022/11/23 20:48:14;;;;;;;;;;;8.20;99.90;;;;;;8385546;28;19974;-71
2022/11/23 20:52:16;;;;;;;;;;;8.20;99.90;;;;;;8393161;28;19925;-71
2022/11/23 20:56:19;;;;;;;;;;;8.20;99.90;;;;;;8389029;28;19928;-71
2022/11/23 21:00:26;;;;;;;;;;;8.20;99.90;;;;;;8392503;28;19930;-71
2022/11/23 21:04:27;;;;;;;;;;;8.20;99.90;;;;;;8390875;28;19940;-71
2022/11/23 21:08:30;;;;;;;;;;;8.30;99.90;;;;;;8378702;28;19925;-71
2022/11/23 21:16:57;;;;;;;;;;;8.40;99.90;;;;;;8393006;28;22627;-72
2022/11/23 21:20:59;;;;;;;;;;;8.40;99.90;;;;;;8390241;28;19932;-71
2022/11/23 21:25:01;;;;;;;;;;;8.40;99.90;;;;;;8366789;28;20263;-71
2022/11/23 21:29:03;;;;;;;;;;;8.40;99.90;;;;;;8393403;28;20317;-71
2022/11/23 21:33:04;;;;;;;;;;;8.40;99.90;;;;;;8379448;28;19928;-71
2022/11/23 21:37:08;;;;;;;;;;;8.40;99.90;;;;;;8388702;28;19967;-72
2022/11/23 21:41:12;;;;;;;;;;;8.40;99.90;;;;;;8373453;28;20375;-71
2022/11/23 21:45:13;;;;;;;;;;;8.40;99.90;;;;;;8381698;28;20379;-71
2022/11/23 21:49:15;;;;;;;;;;;8.40;99.90;;;;;;8389620;28;20287;-71
2022/11/23 21:53:17;;;;;;;;;;;8.40;99.90;;;;;;8379027;28;20371;-71
2022/11/23 21:57:18;;;;;;;;;;;8.40;99.90;;;;;;8388706;28;19975;-71
2022/11/23 22:01:28;;;;;;;;;;;8.40;99.90;;;;;;8391308;28;19924;-71
2022/11/23 22:05:29;;;;;;;;;;;8.40;99.90;;;;;;8400244;28;20398;-71
2022/11/23 22:09:33;;;;;;;;;;;8.40;99.90;;;;;;8390295;28;19947;-71
2022/11/23 22:13:35;;;;;;;;;;;8.30;99.90;;;;;;8397649;28;19969;-71
2022/11/23 22:17:37;;;;;;;;;;;8.30;99.90;;;;;;8400092;28;20328;-71
2022/11/23 22:21:40;;;;;;;;;;;8.30;99.90;;;;;;8398645;28;19928;-72
2022/11/23 22:25:41;;;;;;;;;;;8.30;99.90;;;;;;8393680;28;20391;-71
2022/11/23 22:29:48;;;;;;;;;;;8.30;99.90;;;;;;8397957;28;19959;-71
2022/11/23 22:33:53;;;;;;;;;;;8.30;99.90;;;;;;8406288;28;19931;-71
2022/11/23 22:43:35;;;;;;;;;;;8.30;99.90;;;;;;8411687;28;19924;-71
2022/11/23 22:47:37;;;;;;;;;;;8.40;99.90;;;;;;8416882;28;19931;-72
2022/11/23 22:51:40;;;;;;;;;;;8.40;99.90;;;;;;8418523;28;19924;-71
2022/11/23 22:55:41;;;;;;;;;;;8.40;99.90;;;;;;8416907;28;19924;-71
2022/11/23 22:59:43;;;;;;;;;;;8.50;99.90;;;;;;8406952;28;19927;-71
2022/11/23 23:03:45;;;;;;;;;;;8.50;99.90;;;;;;8392806;28;19932;-71
2022/11/23 23:07:47;;;;;;;;;;;8.50;99.90;;;;;;8407905;28;19954;-71
2022/11/23 23:11:49;;;;;;;;;;;8.50;99.90;;;;;;8394934;28;20020;-71
2022/11/23 23:15:58;;;;;;;;;;;8.40;99.90;;;;;;8412797;28;19935;-71
2022/11/23 23:20:00;;;;;;;;;;;8.50;99.90;;;;;;8410501;28;19933;-72
2022/11/23 23:24:02;;;;;;;;;;;8.50;99.90;;;;;;8411842;28;19924;-71
2022/11/23 23:28:04;;;;;;;;;;;8.50;99.90;;;;;;8422037;28;19928;-71
2022/11/23 23:32:05;;;;;;;;;;;8.50;99.90;;;;;;8397876;28;19931;-71
2022/11/23 23:36:18;;;;;;;;;;;8.50;99.90;;;;;;8418119;28;19962;-71
2022/11/23 23:40:20;;;;;;;;;;;8.50;99.90;;;;;;8415984;28;19925;-72
2022/11/23 23:44:22;;;;;;;;;;;8.60;99.90;;;;;;8425710;28;19985;-71
2022/11/23 23:48:26;;;;;;;;;;;8.60;99.90;;;;;;8418953;28;19968;-71
2022/11/23 23:52:28;;;;;;;;;;;8.70;99.90;;;;;;8387271;28;19928;-71
2022/11/23 23:56:30;;;;;;;;;;;8.70;99.90;;;;;;8402440;28;19975;-71
